createdAt,value
2023-04-21T00:01:17.616Z,3.85
2023-04-21T00:03:44.496Z,3.82
2023-04-21T00:06:11.024Z,3.79
2023-04-21T00:08:37.783Z,3.79
2023-04-21T00:11:04.280Z,3.73
2023-04-21T00:13:31.000Z,3.67
2023-04-21T00:15:57.736Z,3.66
2023-04-21T00:18:24.172Z,3.63
2023-04-21T00:20:50.570Z,3.60
2023-04-21T00:23:17.234Z,3.60
2023-04-21T00:25:43.792Z,3.60
2023-04-21T00:28:10.239Z,3.56
2023-04-21T00:30:36.640Z,3.55
2023-04-21T00:33:03.162Z,3.55
2023-04-21T00:35:29.887Z,3.56
2023-04-21T00:37:56.655Z,3.56
2023-04-21T00:40:23.340Z,3.57
2023-04-21T00:42:49.901Z,3.62
2023-04-21T00:45:16.354Z,3.63
2023-04-21T00:47:43.459Z,3.60
2023-04-21T00:50:11.393Z,3.50
2023-04-21T00:52:40.432Z,3.43
2023-04-21T00:55:07.694Z,3.36
2023-04-21T00:57:39.591Z,3.33
2023-04-21T01:00:09.261Z,3.35
2023-04-21T01:02:37.279Z,3.29
2023-04-21T01:05:07.071Z,3.29
2023-04-21T01:07:33.522Z,3.33
2023-04-21T01:10:00.222Z,3.31
2023-04-21T01:12:26.684Z,3.28
2023-04-21T01:14:53.234Z,3.35
2023-04-21T01:17:21.384Z,3.38
2023-04-21T01:19:50.793Z,3.37
2023-04-21T01:22:17.523Z,3.32
2023-04-21T01:24:46.002Z,3.26
2023-04-21T01:27:15.816Z,3.20
2023-04-21T01:29:43.403Z,3.18
2023-04-21T01:32:13.072Z,3.18
2023-04-21T01:34:42.678Z,3.17
2023-04-21T01:37:13.894Z,3.15
2023-04-21T01:39:44.654Z,3.08
2023-04-21T01:42:11.497Z,3.05
2023-04-21T01:44:38.339Z,3.03
2023-04-21T01:47:05.580Z,3.02
2023-04-21T01:49:32.612Z,3.00
2023-04-21T01:51:59.387Z,3.01
2023-04-21T01:54:28.203Z,2.97
2023-04-21T01:56:54.672Z,2.91
2023-04-21T01:59:21.419Z,2.86
2023-04-21T02:01:48.813Z,2.86
2023-04-21T02:04:15.792Z,2.83
2023-04-21T02:06:42.681Z,2.82
2023-04-21T02:09:09.546Z,2.85
2023-04-21T02:11:35.833Z,2.87
2023-04-21T02:14:02.287Z,2.86
2023-04-21T02:16:29.097Z,2.86
2023-04-21T02:18:57.996Z,2.93
2023-04-21T02:21:25.639Z,2.94
2023-04-21T02:23:52.443Z,2.96
2023-04-21T02:26:21.901Z,2.95
2023-04-21T02:28:48.398Z,2.94
2023-04-21T02:31:16.230Z,2.99
2023-04-21T02:33:42.751Z,3.01
2023-04-21T02:36:09.130Z,2.86
2023-04-21T02:38:35.815Z,2.90
2023-04-21T02:41:02.457Z,2.91
2023-04-21T02:43:28.870Z,2.78
2023-04-21T02:45:55.337Z,2.76
2023-04-21T02:48:21.998Z,2.78
2023-04-21T02:50:49.671Z,2.74
2023-04-21T02:53:16.347Z,2.79
2023-04-21T02:55:43.328Z,2.84
2023-04-21T02:58:09.714Z,2.84
2023-04-21T03:00:36.235Z,2.77
2023-04-21T03:03:03.424Z,2.78
2023-04-21T03:05:30.147Z,2.80
2023-04-21T03:07:56.566Z,2.82
2023-04-21T03:10:23.053Z,2.83
2023-04-21T03:12:49.821Z,2.78
2023-04-21T03:15:16.594Z,2.73
2023-04-21T03:17:43.506Z,2.75
2023-04-21T03:20:10.216Z,2.76
2023-04-21T03:22:36.704Z,2.77
2023-04-21T03:25:03.810Z,2.66
2023-04-21T03:27:30.483Z,2.67
2023-04-21T03:29:57.209Z,2.57
2023-04-21T03:32:23.802Z,2.51
2023-04-21T03:34:50.408Z,2.47
2023-04-21T03:37:17.184Z,2.47
2023-04-21T03:39:43.585Z,2.48
2023-04-21T03:42:10.257Z,2.50
2023-04-21T03:44:36.846Z,2.42
2023-04-21T03:47:03.243Z,2.37
2023-04-21T03:49:29.665Z,2.35
2023-04-21T03:51:56.030Z,2.27
2023-04-21T03:54:22.497Z,2.22
2023-04-21T03:56:48.910Z,2.22
2023-04-21T03:59:15.287Z,2.13
2023-04-21T04:01:41.743Z,2.15
2023-04-21T04:04:08.406Z,2.17
2023-04-21T04:06:34.970Z,2.15
2023-04-21T04:09:02.070Z,2.14
2023-04-21T04:11:28.595Z,2.12
2023-04-21T04:13:54.966Z,2.15
2023-04-21T04:16:21.410Z,2.21
2023-04-21T04:18:50.387Z,2.28
2023-04-21T04:21:17.020Z,2.30
2023-04-21T04:23:43.439Z,2.26
2023-04-21T04:26:09.779Z,2.31
2023-04-21T04:28:36.211Z,2.28
2023-04-21T04:31:02.769Z,2.34
2023-04-21T04:33:29.375Z,2.38
2023-04-21T04:35:56.462Z,2.36
2023-04-21T04:38:23.109Z,2.28
2023-04-21T04:40:56.626Z,2.26
2023-04-21T04:43:23.630Z,2.37
2023-04-21T04:45:50.274Z,2.35
2023-04-21T04:48:17.060Z,2.30
2023-04-21T04:50:43.647Z,2.26
2023-04-21T04:53:10.043Z,2.47
2023-04-21T04:55:36.450Z,2.52
2023-04-21T04:58:03.048Z,2.59
2023-04-21T05:00:29.547Z,2.59
2023-04-21T05:02:56.388Z,2.60
2023-04-21T05:05:22.931Z,2.55
2023-04-21T05:07:49.348Z,2.64
2023-04-21T05:10:15.784Z,2.69
2023-04-21T05:12:42.278Z,2.65
2023-04-21T05:15:09.245Z,2.60
2023-04-21T05:17:35.797Z,2.69
2023-04-21T05:20:04.838Z,2.50
2023-04-21T05:22:31.344Z,2.48
2023-04-21T05:24:58.599Z,2.45
2023-04-21T05:27:25.121Z,2.51
2023-04-21T05:29:52.102Z,2.38
2023-04-21T05:32:19.072Z,2.54
2023-04-21T05:34:45.940Z,2.52
2023-04-21T05:37:12.378Z,2.54
2023-04-21T05:39:39.488Z,2.58
2023-04-21T05:42:06.147Z,2.46
2023-04-21T05:44:32.888Z,2.46
2023-04-21T05:46:59.322Z,2.67
2023-04-21T05:49:26.708Z,2.85
2023-04-21T05:51:53.321Z,2.95
2023-04-21T05:54:20.073Z,3.11
2023-04-21T05:56:46.969Z,3.22
2023-04-21T05:59:13.721Z,3.24
2023-04-21T06:01:40.284Z,3.31
2023-04-21T06:04:07.177Z,3.46
2023-04-21T06:06:34.074Z,3.47
2023-04-21T06:09:00.623Z,3.42
2023-04-21T06:11:27.154Z,3.64
2023-04-21T06:13:53.760Z,3.63
2023-04-21T06:16:20.718Z,3.54
2023-04-21T06:18:47.149Z,3.65
2023-04-21T06:21:13.688Z,3.89
2023-04-21T06:23:40.143Z,4.07
2023-04-21T06:26:07.418Z,3.88
2023-04-21T06:28:35.207Z,3.82
2023-04-21T06:31:03.033Z,3.86
2023-04-21T06:33:30.578Z,3.88
2023-04-21T06:35:57.039Z,3.80
2023-04-21T06:38:23.564Z,4.02
2023-04-21T06:40:50.671Z,4.19
2023-04-21T06:43:17.356Z,4.54
2023-04-21T06:45:44.825Z,4.54
2023-04-21T06:48:11.356Z,4.84
2023-04-21T06:50:39.614Z,5.04
2023-04-21T06:53:07.290Z,5.02
2023-04-21T06:55:34.106Z,4.95
2023-04-21T06:58:01.948Z,4.99
2023-04-21T07:00:29.305Z,5.01
2023-04-21T07:02:56.149Z,5.34
2023-04-21T07:05:22.635Z,5.36
2023-04-21T07:07:49.126Z,5.32
2023-04-21T07:10:15.667Z,5.41
2023-04-21T07:12:42.202Z,5.62
2023-04-21T07:15:09.740Z,5.71
2023-04-21T07:17:37.415Z,5.74
2023-04-21T07:20:04.556Z,5.94
2023-04-21T07:22:31.080Z,6.07
2023-04-21T07:24:57.694Z,6.14
2023-04-21T07:27:24.149Z,6.01
2023-04-21T07:29:50.902Z,6.11
2023-04-21T07:32:17.331Z,6.04
2023-04-21T07:34:43.798Z,5.99
2023-04-21T07:37:10.307Z,6.18
2023-04-21T07:39:36.814Z,6.31
2023-04-21T07:42:03.311Z,6.40
2023-04-21T07:44:29.775Z,6.82
2023-04-21T07:46:56.501Z,7.42
2023-04-21T07:49:23.533Z,7.57
2023-04-21T07:51:50.203Z,7.42
2023-04-21T07:54:16.624Z,7.77
2023-04-21T07:56:43.207Z,7.74
2023-04-21T07:59:09.779Z,7.82
2023-04-21T08:01:36.217Z,7.81
2023-04-21T08:04:03.053Z,7.85
2023-04-21T08:06:29.772Z,7.91
2023-04-21T08:08:56.338Z,7.37
2023-04-21T08:11:22.991Z,7.47
2023-04-21T08:13:49.882Z,7.91
2023-04-21T08:16:16.641Z,8.40
2023-04-21T08:18:43.197Z,9.17
2023-04-21T08:21:09.648Z,9.24
2023-04-21T08:23:36.200Z,9.27
2023-04-21T08:26:03.176Z,9.76
2023-04-21T08:28:29.668Z,10.24
2023-04-21T08:30:56.154Z,10.32
2023-04-21T08:33:22.600Z,9.36
2023-04-21T08:36:02.320Z,9.49
2023-04-21T08:38:30.589Z,9.19
2023-04-21T08:40:59.124Z,9.31
2023-04-21T08:43:26.174Z,10.27
2023-04-21T08:45:53.191Z,10.59
2023-04-21T08:48:21.895Z,10.70
2023-04-21T08:50:52.170Z,10.86
2023-04-21T08:53:18.488Z,10.42
2023-04-21T08:55:49.243Z,10.53
2023-04-21T08:58:17.993Z,10.86
2023-04-21T09:00:44.578Z,10.80
2023-04-21T09:03:23.353Z,11.04
2023-04-21T09:06:03.872Z,11.28
2023-04-21T09:08:31.980Z,11.55
2023-04-21T09:11:00.353Z,11.39
2023-04-21T09:13:32.825Z,11.94
2023-04-21T09:16:01.413Z,12.08
2023-04-21T09:18:31.195Z,12.30
2023-04-21T09:21:16.945Z,12.53
2023-04-21T09:23:49.179Z,12.89
2023-04-21T09:26:17.046Z,12.90
2023-04-21T09:28:44.731Z,12.36
2023-04-21T09:31:19.484Z,12.59
2023-04-21T09:36:23.509Z,12.55
2023-04-21T09:41:32.356Z,13.31
2023-04-21T09:44:00.525Z,13.46
2023-04-21T09:46:36.345Z,13.55
2023-04-21T09:49:05.583Z,13.93
2023-04-21T09:51:56.307Z,13.84
2023-04-21T09:54:30.027Z,13.67
2023-04-21T09:57:04.662Z,13.62
2023-04-21T09:59:41.688Z,13.55
2023-04-21T10:02:10.709Z,13.49
2023-04-21T10:04:39.753Z,13.61
2023-04-21T10:07:07.044Z,13.65
2023-04-21T10:09:40.866Z,13.76
2023-04-21T10:12:09.688Z,13.57
2023-04-21T10:14:36.923Z,13.82
2023-04-21T10:17:12.378Z,13.79
2023-04-21T10:19:52.954Z,13.85
2023-04-21T10:22:35.320Z,14.45
2023-04-21T10:25:03.945Z,14.62
2023-04-21T10:27:41.660Z,13.95
2023-04-21T10:30:25.453Z,14.35
2023-04-21T10:33:06.654Z,14.48
2023-04-21T10:36:02.077Z,14.89
2023-04-21T10:38:42.930Z,14.89
2023-04-21T10:41:30.991Z,15.19
2023-04-21T10:44:02.341Z,14.78
2023-04-21T10:46:39.305Z,15.09
2023-04-21T10:49:12.745Z,15.06
2023-04-21T10:52:00.404Z,15.61
2023-04-21T10:54:38.559Z,15.66
2023-04-21T10:57:09.844Z,15.51
2023-04-21T10:59:36.391Z,15.82
2023-04-21T11:02:07.305Z,15.61
2023-04-21T11:04:34.284Z,15.61
2023-04-21T11:07:23.647Z,15.88
2023-04-21T11:10:06.766Z,15.83
2023-04-21T11:12:37.619Z,15.52
2023-04-21T11:15:12.241Z,15.81
2023-04-21T11:17:39.022Z,16.61
2023-04-21T11:20:10.005Z,16.84
2023-04-21T11:22:37.721Z,16.54
2023-04-21T11:25:17.390Z,16.42
2023-04-21T11:27:56.480Z,16.44
2023-04-21T11:30:33.134Z,16.85
2023-04-21T11:33:00.649Z,16.74
2023-04-21T11:35:27.481Z,17.03
2023-04-21T11:37:55.699Z,16.58
2023-04-21T11:40:23.241Z,16.46
2023-04-21T11:42:50.695Z,16.68
2023-04-21T11:45:21.274Z,16.58
2023-04-21T11:47:48.799Z,16.63
2023-04-21T11:50:35.387Z,16.24
2023-04-21T11:53:02.902Z,16.31
2023-04-21T11:55:29.411Z,16.58
2023-04-21T11:57:57.132Z,16.54
2023-04-21T12:00:23.655Z,17.00
2023-04-21T12:02:56.706Z,16.68
2023-04-21T12:05:23.415Z,17.07
2023-04-21T12:07:50.130Z,16.72
2023-04-21T12:10:21.566Z,17.13
2023-04-21T12:12:48.609Z,17.29
2023-04-21T12:15:20.940Z,17.17
2023-04-21T12:17:50.618Z,17.04
2023-04-21T12:20:24.531Z,17.16
2023-04-21T12:22:51.293Z,16.89
2023-04-21T12:25:18.821Z,17.12
2023-04-21T12:27:53.497Z,17.55
2023-04-21T12:30:20.923Z,17.58
2023-04-21T12:32:47.719Z,17.39
2023-04-21T12:35:14.485Z,17.52
2023-04-21T12:37:41.123Z,17.12
2023-04-21T12:40:08.220Z,17.21
2023-04-21T12:42:37.302Z,17.47
2023-04-21T12:45:06.108Z,17.47
2023-04-21T12:47:36.234Z,17.44
2023-04-21T12:50:02.860Z,17.67
2023-04-21T12:52:29.340Z,17.29
2023-04-21T12:54:56.091Z,17.71
2023-04-21T12:57:25.144Z,18.10
2023-04-21T12:59:51.950Z,17.82
2023-04-21T13:02:18.598Z,17.65
2023-04-21T13:04:45.358Z,17.87
2023-04-21T13:07:11.855Z,17.82
2023-04-21T13:09:38.759Z,18.07
2023-04-21T13:12:05.298Z,17.95
2023-04-21T13:14:32.073Z,18.40
2023-04-21T13:16:59.078Z,18.56
2023-04-21T13:19:25.597Z,17.81
2023-04-21T13:21:54.243Z,17.96
2023-04-21T13:24:22.503Z,17.80
2023-04-21T13:26:49.474Z,18.19
2023-04-21T13:29:16.576Z,17.94
2023-04-21T13:31:44.073Z,18.03
2023-04-21T13:34:10.985Z,17.95
2023-04-21T13:36:37.823Z,18.39
2023-04-21T13:39:05.377Z,18.20
2023-04-21T13:41:31.829Z,18.74
2023-04-21T13:43:58.914Z,18.51
2023-04-21T13:46:25.477Z,18.35
2023-04-21T13:48:51.937Z,18.14
2023-04-21T13:51:20.871Z,18.36
2023-04-21T13:53:48.215Z,17.96
2023-04-21T13:56:15.692Z,18.30
2023-04-21T13:58:45.144Z,18.62
2023-04-21T14:01:17.211Z,18.48
2023-04-21T14:03:45.358Z,18.41
2023-04-21T14:06:12.198Z,18.44
2023-04-21T14:08:39.076Z,18.62
2023-04-21T14:11:15.533Z,18.81
2023-04-21T14:13:59.500Z,18.72
2023-04-21T14:16:29.238Z,18.70
2023-04-21T14:18:55.932Z,18.85
2023-04-21T14:21:23.752Z,18.61
2023-04-21T14:23:50.340Z,18.61
2023-04-21T14:26:17.059Z,18.64
2023-04-21T14:28:44.071Z,18.66
2023-04-21T14:31:10.582Z,18.78
2023-04-21T14:33:37.343Z,18.76
2023-04-21T14:36:04.137Z,18.72
2023-04-21T14:38:30.734Z,18.55
2023-04-21T14:40:57.262Z,18.30
2023-04-21T14:43:23.971Z,18.29
2023-04-21T14:45:50.756Z,18.12
2023-04-21T14:48:17.390Z,18.62
2023-04-21T14:50:44.046Z,18.56
2023-04-21T14:53:11.661Z,18.25
2023-04-21T14:55:38.411Z,18.37
2023-04-21T14:58:05.141Z,18.66
2023-04-21T15:00:31.596Z,18.24
2023-04-21T15:02:58.686Z,17.93
2023-04-21T15:05:25.193Z,18.10
2023-04-21T15:07:51.943Z,18.29
2023-04-21T15:10:18.377Z,18.31
2023-04-21T15:12:45.021Z,18.13
2023-04-21T15:15:11.644Z,18.02
2023-04-21T15:17:38.102Z,18.00
2023-04-21T15:20:08.067Z,18.00
2023-04-21T15:22:34.935Z,18.42
2023-04-21T15:25:01.751Z,18.56
2023-04-21T15:27:28.689Z,18.15
2023-04-21T15:29:55.338Z,18.03
2023-04-21T15:32:23.510Z,18.13
2023-04-21T15:34:51.518Z,18.11
2023-04-21T15:37:18.819Z,17.97
2023-04-21T15:39:45.228Z,18.35
2023-04-21T15:42:12.089Z,18.48
2023-04-21T15:44:40.525Z,18.69
2023-04-21T15:47:06.974Z,18.79
2023-04-21T15:49:34.325Z,18.92
2023-04-21T15:52:03.780Z,18.69
2023-04-21T15:54:30.276Z,18.59
2023-04-21T15:56:56.981Z,18.73
2023-04-21T15:59:26.442Z,18.84
2023-04-21T16:01:53.225Z,18.73
2023-04-21T16:04:23.954Z,18.65
2023-04-21T16:07:09.604Z,18.45
2023-04-21T16:09:36.855Z,18.39
2023-04-21T16:12:24.313Z,18.49
2023-04-21T16:14:59.612Z,18.20
2023-04-21T16:17:30.726Z,18.05
2023-04-21T16:19:57.372Z,18.23
2023-04-21T16:22:24.353Z,18.44
2023-04-21T16:24:50.947Z,18.17
2023-04-21T16:27:17.462Z,18.34
2023-04-21T16:29:46.271Z,18.24
2023-04-21T16:32:12.719Z,17.70
2023-04-21T16:34:39.624Z,17.58
2023-04-21T16:37:06.401Z,17.63
2023-04-21T16:39:32.891Z,17.33
2023-04-21T16:42:00.326Z,17.27
2023-04-21T16:44:27.041Z,17.29
2023-04-21T16:46:53.588Z,17.35
2023-04-21T16:49:20.140Z,17.48
2023-04-21T16:51:47.930Z,17.60
2023-04-21T16:54:15.539Z,17.57
2023-04-21T16:56:42.017Z,17.51
2023-04-21T16:59:09.279Z,17.42
2023-04-21T17:01:35.947Z,17.35
2023-04-21T17:04:02.602Z,17.27
2023-04-21T17:06:29.726Z,17.23
2023-04-21T17:08:56.362Z,17.15
2023-04-21T17:11:22.830Z,17.06
2023-04-21T17:13:51.468Z,16.95
2023-04-21T17:16:18.014Z,16.87
2023-04-21T17:18:44.456Z,16.71
2023-04-21T17:21:10.888Z,16.66
2023-04-21T17:23:37.671Z,16.60
2023-04-21T17:26:04.216Z,16.59
2023-04-21T17:28:31.016Z,16.57
2023-04-21T17:31:13.769Z,16.50
2023-04-21T17:33:42.180Z,16.48
2023-04-21T17:36:08.976Z,16.49
2023-04-21T17:38:36.422Z,16.45
2023-04-21T17:41:03.017Z,16.32
2023-04-21T17:43:32.353Z,16.28
2023-04-21T17:45:58.931Z,16.25
2023-04-21T17:48:25.721Z,16.18
2023-04-21T17:50:52.231Z,16.15
2023-04-21T17:53:23.713Z,16.14
2023-04-21T17:55:50.613Z,16.06
2023-04-21T17:58:18.182Z,15.97
2023-04-21T18:00:44.711Z,16.00
2023-04-21T18:03:11.405Z,15.98
2023-04-21T18:05:38.566Z,15.95
2023-04-21T18:08:05.407Z,15.96
2023-04-21T18:10:31.982Z,15.98
2023-04-21T18:12:59.029Z,15.86
2023-04-21T18:15:25.829Z,15.84
2023-04-21T18:17:52.586Z,15.70
2023-04-21T18:20:19.381Z,15.70
2023-04-21T18:22:46.009Z,15.57
2023-04-21T18:25:14.563Z,15.40
2023-04-21T18:27:41.267Z,15.22
2023-04-21T18:30:09.807Z,15.12
2023-04-21T18:32:37.429Z,14.96
2023-04-21T18:35:06.036Z,14.82
2023-04-21T18:37:32.898Z,14.71
2023-04-21T18:40:00.422Z,14.61
2023-04-21T18:42:26.974Z,14.67
2023-04-21T18:44:57.084Z,14.66
2023-04-21T18:47:24.872Z,14.57
2023-04-21T18:49:51.686Z,14.48
2023-04-21T18:52:18.531Z,14.37
2023-04-21T18:54:45.493Z,14.26
2023-04-21T18:57:12.002Z,14.15
2023-04-21T18:59:38.645Z,14.16
2023-04-21T19:02:05.053Z,14.08
2023-04-21T19:04:35.543Z,13.99
2023-04-21T19:07:02.113Z,14.07
2023-04-21T19:09:28.955Z,14.14
2023-04-21T19:12:06.332Z,13.96
2023-04-21T19:14:42.511Z,13.88
2023-04-21T19:17:13.079Z,13.77
2023-04-21T19:19:39.393Z,13.68
2023-04-21T19:22:05.844Z,13.64
2023-04-21T19:24:41.543Z,13.63
2023-04-21T19:27:08.018Z,13.69
2023-04-21T19:29:38.151Z,13.79
2023-04-21T19:32:08.013Z,13.72
2023-04-21T19:34:35.455Z,13.68
2023-04-21T19:37:02.431Z,13.62
2023-04-21T19:39:29.069Z,13.55
2023-04-21T19:41:55.676Z,13.48
2023-04-21T19:44:22.621Z,13.43
2023-04-21T19:46:49.177Z,13.40
2023-04-21T19:49:15.780Z,13.33
2023-04-21T19:51:42.189Z,13.25
2023-04-21T19:54:18.300Z,13.17
2023-04-21T19:56:51.739Z,13.09
2023-04-21T19:59:18.644Z,13.03
2023-04-21T20:01:45.113Z,12.95
2023-04-21T20:04:12.403Z,12.90
2023-04-21T20:06:39.220Z,12.84
2023-04-21T20:09:06.978Z,12.79
2023-04-21T20:11:33.762Z,12.73
2023-04-21T20:14:00.245Z,12.68
2023-04-21T20:16:30.622Z,12.64
2023-04-21T20:18:57.557Z,12.61
2023-04-21T20:21:24.000Z,12.56
2023-04-21T20:23:50.732Z,12.49
2023-04-21T20:26:18.806Z,12.44
2023-04-21T20:28:46.194Z,12.36
2023-04-21T20:31:13.157Z,12.30
2023-04-21T20:33:39.641Z,12.28
2023-04-21T20:36:06.158Z,12.28
2023-04-21T20:38:33.818Z,12.24
2023-04-21T20:41:00.965Z,12.16
2023-04-21T20:43:28.218Z,12.12
2023-04-21T20:45:54.957Z,12.19
2023-04-21T20:48:21.388Z,12.18
2023-04-21T20:50:51.233Z,12.15
2023-04-21T20:53:20.212Z,12.13
2023-04-21T20:55:46.734Z,12.17
2023-04-21T20:58:13.709Z,12.17
2023-04-21T21:00:40.248Z,12.14
2023-04-21T21:03:06.769Z,12.08
2023-04-21T21:05:33.434Z,12.05
2023-04-21T21:07:59.957Z,12.00
2023-04-21T21:10:28.724Z,11.94
2023-04-21T21:12:55.435Z,11.94
2023-04-21T21:15:22.259Z,11.91
2023-04-21T21:17:48.763Z,11.92
2023-04-21T21:20:15.334Z,11.93
2023-04-21T21:22:42.094Z,11.85
2023-04-21T21:25:09.093Z,11.77
2023-04-21T21:27:35.647Z,11.76
2023-04-21T21:30:02.280Z,11.75
2023-04-21T21:32:28.814Z,11.74
2023-04-21T21:34:57.506Z,11.72
2023-04-21T21:37:23.925Z,11.73
2023-04-21T21:39:51.487Z,11.73
2023-04-21T21:42:18.056Z,11.69
2023-04-21T21:44:44.515Z,11.63
2023-04-21T21:47:11.040Z,11.59
2023-04-21T21:49:37.859Z,11.55
2023-04-21T21:52:07.576Z,11.51
2023-04-21T21:54:34.218Z,11.43
2023-04-21T21:57:00.795Z,11.38
2023-04-21T21:59:27.347Z,11.37
2023-04-21T22:01:54.023Z,11.33
2023-04-21T22:04:20.822Z,11.25
2023-04-21T22:06:49.580Z,11.26
2023-04-21T22:09:16.092Z,11.29
2023-04-21T22:11:42.589Z,11.31
2023-04-21T22:14:22.057Z,11.30
2023-04-21T22:16:51.143Z,11.31
2023-04-21T22:19:17.559Z,11.32
2023-04-21T22:21:43.914Z,11.28
2023-04-21T22:24:12.998Z,11.15
2023-04-21T22:26:39.959Z,11.16
2023-04-21T22:29:06.513Z,11.19
2023-04-21T22:31:33.066Z,11.17
2023-04-21T22:33:59.869Z,11.18
2023-04-21T22:36:26.601Z,11.18
2023-04-21T22:38:53.354Z,11.19
2023-04-21T22:41:20.182Z,11.20
2023-04-21T22:43:46.768Z,11.22
2023-04-21T22:46:13.197Z,11.29
2023-04-21T22:48:39.635Z,11.35
2023-04-21T22:51:07.138Z,11.32
2023-04-21T22:53:33.842Z,11.28
2023-04-21T22:56:00.324Z,11.27
2023-04-21T22:58:27.092Z,11.25
2023-04-21T23:00:53.537Z,11.17
2023-04-21T23:03:20.156Z,11.11
2023-04-21T23:05:46.631Z,11.07
2023-04-21T23:08:13.060Z,11.05
2023-04-21T23:10:40.452Z,11.01
2023-04-21T23:13:07.023Z,10.99
2023-04-21T23:15:33.559Z,10.98
2023-04-21T23:18:00.293Z,10.96
2023-04-21T23:20:26.758Z,10.94
2023-04-21T23:22:53.194Z,10.92
2023-04-21T23:25:19.621Z,10.90
2023-04-21T23:27:45.985Z,10.87
2023-04-21T23:30:12.731Z,10.85
2023-04-21T23:32:39.488Z,10.84
2023-04-21T23:35:06.871Z,10.83
2023-04-21T23:37:33.370Z,10.82
2023-04-21T23:39:59.860Z,10.80
2023-04-21T23:42:26.346Z,10.79
2023-04-21T23:44:52.895Z,10.79
2023-04-21T23:47:19.475Z,10.77
2023-04-21T23:49:46.687Z,10.73
2023-04-21T23:52:13.053Z,10.66
2023-04-21T23:54:39.510Z,10.69
2023-04-21T23:57:05.937Z,10.69
2023-04-21T23:59:32.336Z,10.62
